KDMO/DMO METAR and TAF weather

Enter ICAO airport designator
Station Type Date Time Source
KDMO METAR 2021/03/01 03:53 UTC NOAA

KDMO 010353Z AUTO 33007KT 10SM CLR 02/M01 A3015 RMK AO2 SLP213 T00221011


Station Type Date Time Source
KDMO Decoded METAR 2021/03/01 03:53 UTC NOAA

SEDALIA MEMORIAL AIRPORT, MO, United States (KDMO) 38-43N 93-10W 274M
Feb 28, 2021 - 10:53 PM EST / 2021.03.01 0353 UTC
Wind: from the NNW (330 degrees) at 8 MPH (7 KT):0
Visibility: 10 mile(s):0
Sky conditions: clear
Temperature: 36.0 F (2.2 C)
Dew Point: 30.0 F (-1.1 C)
Relative Humidity: 78%
Pressure (altimeter): 30.15 in. Hg (1020 hPa)
ob: KDMO 010353Z AUTO 33007KT 10SM CLR 02/M01 A3015 RMK AO2 SLP213 T00221011
cycle: 4

Station Type Date Time Source
KDMO TAF UTC NOAA

Error!

Example: see airport list